• Join FlightAware (Why Join?)
  • Login
  • US Flag 
11:27AM EDT


 

Airport Tracker/Info


-or-


 

Live Flight TrackerFlight Track Log ✈ BJS542 ✈ 29-Apr-2013 ✈ KVRB - MYNN / NAS

Flight Track Log - Related Links

Times and Time Zones

All times are in EDT time to prevent confusion due to time zone crossing. See the BJS542 flight status page for this flight to view local times or setup timezone preferences in your user account.

Time Position Orientation Groundspeed Altitude Reporting Facility
EDT Latitude Longitude Course Direction KTS MPH feet Rate Location/Type
10:56AM 27.6458 -80.3872 125° Southeast 305 351 1,900  Level Miami Center
10:57AM 27.6325 -80.3258 104° East 250 288 4,100 3,120 Climbing Miami Center
10:58AM 27.6194 -80.2600 103° East 205 236 8,200 3,180 Climbing Miami Center
10:59AM 27.6044 -80.1961 105° East 220 253 10,500 2,820 Climbing Miami Center
11:00AM 27.3650 -79.9774 125° Southeast  Level FlightAware Approximate
11:00AM 27.5897 -80.1044 100° East 267 307 13,900  Level Miami Center
11:01AM 27.5631 -79.9864 104° East 332 382 17,400 3,120 Climbing Miami Center
11:02AM 27.5042 -79.9053 129° Southeast 358 412 20,200 1,800 Climbing Miami Center
11:03AM 27.4333 -79.8050 129° Southeast 389 448 21,000 360 Climbing Miami Center
11:04AM 27.3603 -79.7028 129° Southeast 416 479 21,000  Level Miami Center
11:05AM 27.2789 -79.5908 129° Southeast 416 479 21,000  Level Miami Center
11:06AM 27.2033 -79.4886 130° Southeast 416 479 21,000  Level Miami Center
11:07AM 27.1278 -79.3889 130° Southeast 421 484 21,000  Level Miami Center
11:08AM 27.0583 -79.2989 131° Southeast 416 479 21,000  Level Miami Center
11:09AM 26.9828 -79.1969 130° Southeast 416 479 21,000  Level Miami Center
11:10AM 26.9092 -79.0978 130° Southeast 411 473 21,000  Level Miami Center
11:11AM 26.8333 -78.9961 130° Southeast 416 479 21,000  Level Miami Center
11:12AM 26.7597 -78.8969 130° Southeast 416 479 21,000  Level Miami Center
11:13AM 26.6839 -78.7958 130° Southeast 411 473 21,000  Level Miami Center
11:14AM 26.6139 -78.7017 130° Southeast 411 473 21,000  Level Miami Center
11:15AM 26.5297 -78.5889 130° Southeast 417 480 21,000  Level Miami Center
11:16AM 26.4536 -78.4881 130° Southeast 417 480 21,000  Level Miami Center
11:17AM 26.3753 -78.3917 132° Southeast 423 487 21,000  Level Miami Center
11:18AM 26.3072 -78.3053 131° Southeast 417 480 21,000  Level Miami Center
11:19AM 26.2308 -78.2047 130° Southeast 411 473 21,000  Level Miami Center
11:20AM 26.1586 -78.1019 128° Southeast 416 479 21,000  Level Miami Center
11:21AM 26.0800 -78.0017 131° Southeast 416 479 21,000  Level Miami Center
11:22AM 26.0033 -77.8992 130° Southeast 421 484 21,000 -240 Level Miami Center
11:23AM 25.9833 -77.7789 100° East 399 459 20,600 -1,140 Descending Miami Center
11:24AM 25.9881 -77.6586 87° East 382 440 18,800 -1,680 Descending Miami Center
11:25AM 25.9133 -77.5889 140° Southeast 361 415 17,300 -1,620 Descending Miami Center
11:26AM 25.8258 -77.5467 157° South 322 371 15,600 -1,620 Descending Miami Center
11:27AM 25.7464 -77.5164 161° South 316 364 14,100 -1,500 Descending Miami Center
11:28AM 25.6692 -77.4906 163° South 298 343 12,600 -1,500 Descending Miami Center